Time;durP1;ratioP1;P1;durP2;ratioP2;P2;SDS_P1;SDS_P2;PMS_P1;PMS_P2;Temp;Humidity;BMP_temperature;BMP_pressure;BME280_temperature;BME280_humidity;BME280_pressure;Samples;Min_cycle;Max_cycle;Signal;HPM_P1;HPM_P2
2023/03/11 00:00:17;;;;;;;1.73;1.25;;;;;;;;;;5076907;28;20535;-82
2023/03/11 00:02:45;;;;;;;3.55;1.30;;;;;;;;;;5076670;28;20422;-83
2023/03/11 00:05:24;;;;;;;2.83;1.30;;;;;;;;;;5077035;28;20040;-82
2023/03/11 00:07:50;;;;;;;1.52;1.30;;;;;;;;;;5077232;28;20029;-82
2023/03/11 00:10:19;;;;;;;2.13;1.30;;;;;;;;;;5059164;28;20551;-82
2023/03/11 00:12:44;;;;;;;2.53;1.30;;;;;;;;;;5076834;28;20024;-82
2023/03/11 00:15:10;;;;;;;2.13;1.33;;;;;;;;;;5076289;28;20399;-82
2023/03/11 00:17:36;;;;;;;3.53;1.10;;;;;;;;;;5076468;28;20048;-82
2023/03/11 00:20:03;;;;;;;1.67;1.40;;;;;;;;;;5076545;28;20032;-82
2023/03/11 00:22:29;;;;;;;1.27;1.10;;;;;;;;;;5058249;28;20060;-81
2023/03/11 00:24:54;;;;;;;1.30;1.20;;;;;;;;;;5075921;28;20033;-81
2023/03/11 00:27:20;;;;;;;2.60;1.40;;;;;;;;;;5058757;28;20037;-81
2023/03/11 00:29:45;;;;;;;1.63;1.30;;;;;;;;;;5075777;28;20045;-82
2023/03/11 00:32:11;;;;;;;2.05;1.20;;;;;;;;;;5057993;28;20113;-82
2023/03/11 00:34:36;;;;;;;1.77;1.25;;;;;;;;;;5076068;28;20032;-81
2023/03/11 00:37:02;;;;;;;2.00;1.20;;;;;;;;;;5058789;28;20128;-84
2023/03/11 00:39:29;;;;;;;1.00;0.90;;;;;;;;;;5058112;28;20041;-84
2023/03/11 00:41:55;;;;;;;1.85;1.10;;;;;;;;;;5075725;28;20101;-83
2023/03/11 00:44:21;;;;;;;2.72;1.27;;;;;;;;;;5057461;28;20044;-83
2023/03/11 00:46:48;;;;;;;1.63;1.02;;;;;;;;;;5041632;28;20036;-82
2023/03/11 00:49:14;;;;;;;1.90;1.10;;;;;;;;;;5076357;28;20448;-83
2023/03/11 00:51:40;;;;;;;1.77;1.05;;;;;;;;;;5057632;28;20554;-82
2023/03/11 00:54:05;;;;;;;1.20;1.00;;;;;;;;;;5057790;28;20028;-83
2023/03/11 00:56:31;;;;;;;1.42;1.10;;;;;;;;;;5057336;28;20091;-81
2023/03/11 00:58:56;;;;;;;1.63;1.02;;;;;;;;;;5057751;28;20037;-82
2023/03/11 01:01:23;;;;;;;1.65;1.00;;;;;;;;;;5057720;28;20028;-82
2023/03/11 01:03:49;;;;;;;1.75;0.90;;;;;;;;;;5075727;28;20060;-83
2023/03/11 01:06:15;;;;;;;1.60;1.10;;;;;;;;;;5075749;28;20037;-82
2023/03/11 01:08:41;;;;;;;1.50;1.02;;;;;;;;;;5057898;28;20036;-83
2023/03/11 01:11:07;;;;;;;2.17;1.00;;;;;;;;;;5058093;28;20110;-82
2023/03/11 01:13:33;;;;;;;0.95;0.90;;;;;;;;;;5041593;28;20032;-82
2023/03/11 01:15:59;;;;;;;1.17;1.00;;;;;;;;;;5043135;28;20131;-82
2023/03/11 01:18:25;;;;;;;1.40;0.90;;;;;;;;;;5063329;28;20055;-82
2023/03/11 01:20:52;;;;;;;0.80;0.80;;;;;;;;;;5063611;28;20564;-82
2023/03/11 01:23:19;;;;;;;1.02;0.93;;;;;;;;;;5080819;28;20115;-83
2023/03/11 01:25:44;;;;;;;2.60;0.93;;;;;;;;;;5061599;28;20028;-83
2023/03/11 01:28:10;;;;;;;2.28;0.90;;;;;;;;;;5080702;28;20094;-82
2023/03/11 01:30:37;;;;;;;0.88;0.80;;;;;;;;;;5063032;28;20455;-84
2023/03/11 01:33:03;;;;;;;1.10;0.95;;;;;;;;;;5062140;28;20472;-82
2023/03/11 01:35:30;;;;;;;1.70;1.10;;;;;;;;;;5077424;28;20048;-82
2023/03/11 01:37:57;;;;;;;1.70;1.13;;;;;;;;;;5075334;28;20063;-82
2023/03/11 01:40:34;;;;;;;1.50;1.20;;;;;;;;;;5057055;28;20016;-83
2023/03/11 01:43:06;;;;;;;1.20;0.90;;;;;;;;;;5056605;28;20037;-83
2023/03/11 01:45:38;;;;;;;1.25;1.00;;;;;;;;;;5056503;28;20748;-82
2023/03/11 01:48:07;;;;;;;2.30;1.30;;;;;;;;;;5056668;28;20032;-82
2023/03/11 01:50:43;;;;;;;1.42;1.00;;;;;;;;;;5056660;28;20450;-83
2023/03/11 01:53:10;;;;;;;1.42;1.10;;;;;;;;;;5057637;28;20064;-82
2023/03/11 01:55:36;;;;;;;1.45;1.05;;;;;;;;;;5056886;28;20033;-83
2023/03/11 01:58:05;;;;;;;1.67;1.20;;;;;;;;;;5040356;28;20040;-81
2023/03/11 02:00:30;;;;;;;1.30;1.00;;;;;;;;;;5056889;28;20091;-84
2023/03/11 02:02:59;;;;;;;3.30;1.40;;;;;;;;;;5075001;28;20404;-82
2023/03/11 02:05:25;;;;;;;1.55;1.20;;;;;;;;;;5060664;28;20510;-82
2023/03/11 02:07:53;;;;;;;2.13;1.30;;;;;;;;;;5060365;28;20043;-82
2023/03/11 02:10:20;;;;;;;1.98;1.23;;;;;;;;;;5060285;28;20039;-82
2023/03/11 02:12:49;;;;;;;3.05;1.20;;;;;;;;;;5043542;28;20496;-82
2023/03/11 02:15:20;;;;;;;1.60;1.15;;;;;;;;;;5078708;28;20049;-83
2023/03/11 02:17:46;;;;;;;3.33;1.50;;;;;;;;;;5043932;28;20028;-83
2023/03/11 02:20:15;;;;;;;1.55;1.20;;;;;;;;;;5060924;28;20040;-82
2023/03/11 02:22:41;;;;;;;2.50;1.40;;;;;;;;;;5060283;28;20424;-82
2023/03/11 02:25:17;;;;;;;1.63;1.20;;;;;;;;;;5060379;28;20102;-82
2023/03/11 02:27:47;;;;;;;1.33;1.10;;;;;;;;;;5060360;28;20036;-82
2023/03/11 02:30:15;;;;;;;1.88;1.40;;;;;;;;;;5060620;28;20028;-83
2023/03/11 02:32:46;;;;;;;3.15;1.60;;;;;;;;;;5060205;28;20656;-82
2023/03/11 02:35:12;;;;;;;2.28;1.40;;;;;;;;;;5059799;28;20043;-83
2023/03/11 02:37:44;;;;;;;1.85;1.50;;;;;;;;;;5060391;28;20111;-82
2023/03/11 02:40:35;;;;;;;2.08;1.55;;;;;;;;;;5060391;28;20044;-83
2023/03/11 02:43:08;;;;;;;1.58;1.38;;;;;;;;;;5060401;28;20523;-82
2023/03/11 02:45:34;;;;;;;1.83;1.40;;;;;;;;;;5059745;28;20037;-82
2023/03/11 02:48:01;;;;;;;3.80;1.70;;;;;;;;;;5060257;28;20481;-83
2023/03/11 02:50:30;;;;;;;2.10;1.50;;;;;;;;;;5060048;28;20506;-83
2023/03/11 02:52:55;;;;;;;2.60;1.65;;;;;;;;;;5078310;28;20036;-83
2023/03/11 02:55:21;;;;;;;2.40;1.80;;;;;;;;;;5059870;28;20059;-81
2023/03/11 02:57:47;;;;;;;2.40;1.60;;;;;;;;;;5059856;28;20033;-82
2023/03/11 03:00:15;;;;;;;2.33;1.60;;;;;;;;;;5060017;28;20039;-82
2023/03/11 03:02:50;;;;;;;2.47;1.42;;;;;;;;;;5060188;28;20458;-82
2023/03/11 03:05:19;;;;;;;2.15;1.50;;;;;;;;;;5059163;28;20036;-82
2023/03/11 03:07:47;;;;;;;1.98;1.40;;;;;;;;;;5043068;28;20426;-82
2023/03/11 03:10:13;;;;;;;2.70;1.65;;;;;;;;;;5059606;28;20036;-83
2023/03/11 03:12:39;;;;;;;1.92;1.50;;;;;;;;;;5060004;28;20496;-82
2023/03/11 03:15:05;;;;;;;2.42;1.40;;;;;;;;;;5059487;28;20039;-82
2023/03/11 03:17:31;;;;;;;1.73;1.40;;;;;;;;;;5059674;28;20070;-81
2023/03/11 03:19:57;;;;;;;2.00;1.50;;;;;;;;;;5060229;28;20040;-82
2023/03/11 03:22:26;;;;;;;1.90;1.30;;;;;;;;;;5077450;28;20033;-81
2023/03/11 03:24:52;;;;;;;2.35;1.60;;;;;;;;;;5059395;28;20557;-81
2023/03/11 03:27:18;;;;;;;2.15;1.63;;;;;;;;;;5059495;28;20119;-81
2023/03/11 03:29:44;;;;;;;2.30;1.70;;;;;;;;;;5059155;28;20132;-81
2023/03/11 03:32:10;;;;;;;3.97;1.65;;;;;;;;;;5058432;28;20033;-82
2023/03/11 03:34:36;;;;;;;4.13;1.73;;;;;;;;;;5058793;28;20539;-82
2023/03/11 03:37:01;;;;;;;2.17;1.40;;;;;;;;;;5041493;28;20028;-81
2023/03/11 03:39:27;;;;;;;2.42;1.60;;;;;;;;;;5058473;28;20036;-83
2023/03/11 03:41:53;;;;;;;2.55;1.60;;;;;;;;;;5058444;28;20044;-83
2023/03/11 03:44:21;;;;;;;2.58;1.90;;;;;;;;;;5057599;28;20552;-82
2023/03/11 03:46:46;;;;;;;2.30;1.65;;;;;;;;;;5042844;28;20132;-82
2023/03/11 03:49:11;;;;;;;2.50;1.75;;;;;;;;;;5077680;28;20036;-82
2023/03/11 03:51:38;;;;;;;2.40;1.77;;;;;;;;;;5059153;28;20029;-83
2023/03/11 03:54:08;;;;;;;2.30;1.63;;;;;;;;;;5058919;28;20060;-81
2023/03/11 03:56:34;;;;;;;2.33;1.80;;;;;;;;;;5058946;28;20481;-82
2023/03/11 03:59:00;;;;;;;3.17;1.90;;;;;;;;;;5059509;28;20400;-82
2023/03/11 04:01:32;;;;;;;4.13;1.85;;;;;;;;;;5043213;28;20035;-82
2023/03/11 04:03:58;;;;;;;3.20;2.00;;;;;;;;;;5058100;28;20089;-82
2023/03/11 04:06:26;;;;;;;2.80;2.00;;;;;;;;;;5058331;28;20033;-82
2023/03/11 04:08:59;;;;;;;2.30;1.73;;;;;;;;;;5058855;28;20067;-82
2023/03/11 04:11:30;;;;;;;2.50;1.90;;;;;;;;;;5058505;28;20119;-83
2023/03/11 04:13:56;;;;;;;2.63;1.85;;;;;;;;;;5058326;28;20039;-83
2023/03/11 04:16:23;;;;;;;3.22;1.98;;;;;;;;;;5059222;28;20484;-84
2023/03/11 04:18:51;;;;;;;2.55;1.80;;;;;;;;;;5058702;28;20086;-82
2023/03/11 04:21:18;;;;;;;2.97;2.00;;;;;;;;;;5041935;28;20064;-83
2023/03/11 04:23:45;;;;;;;2.67;1.92;;;;;;;;;;5058685;28;20511;-82
2023/03/11 04:26:14;;;;;;;2.47;1.80;;;;;;;;;;5057354;28;20052;-83
2023/03/11 04:28:39;;;;;;;2.40;1.70;;;;;;;;;;5058686;28;20036;-83
2023/03/11 04:31:05;;;;;;;2.30;1.80;;;;;;;;;;5058239;28;20033;-83
2023/03/11 04:33:32;;;;;;;2.97;1.70;;;;;;;;;;5058056;28;20036;-81
2023/03/11 04:35:58;;;;;;;2.78;1.90;;;;;;;;;;5058129;28;20043;-83
2023/03/11 04:38:24;;;;;;;4.45;2.00;;;;;;;;;;5058412;28;20028;-82
2023/03/11 04:40:50;;;;;;;2.30;1.70;;;;;;;;;;5058060;28;20032;-82
2023/03/11 04:43:16;;;;;;;2.03;1.63;;;;;;;;;;5057993;28;20096;-83
2023/03/11 04:45:43;;;;;;;3.10;2.00;;;;;;;;;;5040954;28;20039;-82
2023/03/11 04:48:09;;;;;;;2.80;1.70;;;;;;;;;;5058336;28;20028;-83
2023/03/11 04:50:37;;;;;;;4.00;1.92;;;;;;;;;;5041687;28;20033;-83
2023/03/11 04:53:03;;;;;;;2.60;1.77;;;;;;;;;;5058293;28;20033;-82
2023/03/11 04:55:28;;;;;;;2.70;1.70;;;;;;;;;;5076058;28;20084;-82
2023/03/11 04:57:53;;;;;;;2.20;1.73;;;;;;;;;;5058121;28;20029;-82
2023/03/11 05:00:23;;;;;;;3.63;2.08;;;;;;;;;;5058141;28;20024;-82
2023/03/11 05:02:52;;;;;;;2.67;1.83;;;;;;;;;;5057763;28;20040;-83
2023/03/11 05:05:18;;;;;;;2.38;1.70;;;;;;;;;;5057281;28;20031;-82
2023/03/11 05:07:44;;;;;;;4.28;1.90;;;;;;;;;;5057544;28;20036;-83
2023/03/11 05:10:12;;;;;;;3.65;1.98;;;;;;;;;;5057599;28;20033;-82
2023/03/11 05:12:38;;;;;;;2.40;1.77;;;;;;;;;;5057651;28;20046;-82
2023/03/11 05:15:04;;;;;;;3.35;1.80;;;;;;;;;;5040687;28;20032;-82
2023/03/11 05:17:29;;;;;;;2.58;1.85;;;;;;;;;;5057977;28;20029;-83
2023/03/11 05:19:56;;;;;;;2.80;1.80;;;;;;;;;;5041590;28;20028;-82
2023/03/11 05:22:26;;;;;;;3.38;1.80;;;;;;;;;;5057732;28;20037;-82
2023/03/11 05:24:52;;;;;;;2.70;1.80;;;;;;;;;;5057417;28;20545;-83
2023/03/11 05:27:18;;;;;;;2.97;1.60;;;;;;;;;;5057537;28;20059;-83
2023/03/11 05:29:47;;;;;;;2.40;1.80;;;;;;;;;;5057907;28;20040;-83
2023/03/11 05:32:14;;;;;;;2.58;1.70;;;;;;;;;;5058097;28;20385;-83
2023/03/11 05:34:41;;;;;;;2.78;1.80;;;;;;;;;;5040929;28;20366;-81
2023/03/11 05:37:07;;;;;;;2.80;1.70;;;;;;;;;;5057081;28;20496;-83
2023/03/11 05:39:33;;;;;;;3.35;1.60;;;;;;;;;;5061233;28;20036;-82
2023/03/11 05:41:59;;;;;;;2.20;1.70;;;;;;;;;;5061276;28;20040;-83
2023/03/11 05:44:26;;;;;;;3.05;1.67;;;;;;;;;;5061102;28;20037;-82
2023/03/11 05:46:51;;;;;;;3.58;1.63;;;;;;;;;;5061430;28;20036;-82
2023/03/11 05:49:17;;;;;;;3.08;1.60;;;;;;;;;;5061278;28;20039;-83
2023/03/11 05:51:43;;;;;;;1.92;1.35;;;;;;;;;;5061488;28;20149;-82
2023/03/11 05:54:13;;;;;;;3.38;1.30;;;;;;;;;;5060446;28;20062;-82
2023/03/11 05:56:42;;;;;;;1.88;1.30;;;;;;;;;;5061157;28;20123;-82
2023/03/11 05:59:10;;;;;;;1.60;1.20;;;;;;;;;;5044492;28;20020;-83
2023/03/11 06:01:37;;;;;;;3.00;1.15;;;;;;;;;;5043825;28;20036;-82
2023/03/11 06:04:03;;;;;;;1.60;1.20;;;;;;;;;;5060141;28;20171;-84
2023/03/11 06:06:29;;;;;;;2.03;1.10;;;;;;;;;;5060758;28;20033;-83
2023/03/11 06:08:55;;;;;;;1.80;1.25;;;;;;;;;;5061135;28;20039;-83
2023/03/11 06:11:25;;;;;;;1.48;1.10;;;;;;;;;;5061060;28;20037;-83
2023/03/11 06:13:53;;;;;;;1.63;1.10;;;;;;;;;;5060239;28;20055;-83
2023/03/11 06:16:19;;;;;;;1.40;1.10;;;;;;;;;;5043792;28;20051;-82
2023/03/11 06:18:45;;;;;;;2.45;1.05;;;;;;;;;;5060845;28;20381;-82
2023/03/11 06:21:17;;;;;;;1.98;1.30;;;;;;;;;;5060907;28;20055;-82
2023/03/11 06:23:42;;;;;;;1.67;1.30;;;;;;;;;;5060622;28;20086;-82
2023/03/11 06:26:11;;;;;;;2.15;1.20;;;;;;;;;;5061052;28;20037;-83
2023/03/11 06:28:45;;;;;;;2.67;1.15;;;;;;;;;;5062480;28;20050;-82
2023/03/11 06:31:18;;;;;;;2.10;1.20;;;;;;;;;;5061738;28;20024;-82
2023/03/11 06:33:44;;;;;;;1.88;1.05;;;;;;;;;;5060679;28;20125;-82
2023/03/11 06:36:12;;;;;;;1.92;1.13;;;;;;;;;;5060183;28;20037;-82
2023/03/11 06:38:38;;;;;;;1.77;1.08;;;;;;;;;;5060470;28;20032;-82
2023/03/11 06:41:05;;;;;;;2.17;1.00;;;;;;;;;;5043624;28;20063;-81
2023/03/11 06:43:33;;;;;;;1.30;1.00;;;;;;;;;;5059910;28;20548;-82
2023/03/11 06:45:59;;;;;;;1.58;1.10;;;;;;;;;;5060809;28;20510;-81
2023/03/11 06:48:26;;;;;;;1.20;1.00;;;;;;;;;;5060500;28;20560;-81
2023/03/11 06:50:57;;;;;;;1.52;1.10;;;;;;;;;;5060530;28;20064;-82
2023/03/11 06:53:27;;;;;;;1.65;1.08;;;;;;;;;;5059899;28;20060;-81
2023/03/11 06:56:01;;;;;;;1.67;1.10;;;;;;;;;;5060047;28;20087;-81
2023/03/11 06:58:27;;;;;;;1.90;1.02;;;;;;;;;;5078060;28;20032;-81
2023/03/11 07:00:52;;;;;;;1.55;1.00;;;;;;;;;;5059328;28;20043;-80
2023/03/11 07:03:18;;;;;;;1.63;1.10;;;;;;;;;;5059789;28;20040;-79
2023/03/11 07:05:44;;;;;;;2.33;1.15;;;;;;;;;;5060040;28;20485;-81
2023/03/11 07:08:11;;;;;;;2.45;1.00;;;;;;;;;;5043408;28;20165;-81
2023/03/11 07:10:36;;;;;;;2.28;1.23;;;;;;;;;;5060185;28;20059;-81
2023/03/11 07:13:02;;;;;;;4.70;1.10;;;;;;;;;;5059675;28;20144;-81
2023/03/11 07:15:27;;;;;;;3.65;1.20;;;;;;;;;;5059445;28;20126;-81
2023/03/11 07:17:53;;;;;;;2.28;1.13;;;;;;;;;;5059664;28;20025;-81
2023/03/11 07:20:19;;;;;;;2.10;1.10;;;;;;;;;;5058881;28;20024;-81
2023/03/11 07:22:44;;;;;;;1.58;1.15;;;;;;;;;;5078051;28;20037;-81
2023/03/11 07:25:10;;;;;;;1.75;1.20;;;;;;;;;;5077913;28;20063;-81
2023/03/11 07:27:35;;;;;;;2.03;1.15;;;;;;;;;;5079515;28;20052;-81
2023/03/11 07:30:01;;;;;;;1.92;1.10;;;;;;;;;;5078843;28;20051;-81
2023/03/11 07:32:27;;;;;;;3.05;1.30;;;;;;;;;;5060867;28;20029;-81
2023/03/11 07:34:52;;;;;;;2.65;1.48;;;;;;;;;;5078970;28;20052;-81
2023/03/11 07:37:18;;;;;;;1.83;1.40;;;;;;;;;;5079238;28;20024;-80
2023/03/11 07:39:43;;;;;;;2.85;1.33;;;;;;;;;;5080086;28;20396;-81
2023/03/11 07:42:09;;;;;;;2.10;1.30;;;;;;;;;;5079738;28;20062;-80
2023/03/11 07:44:35;;;;;;;2.70;1.50;;;;;;;;;;5060264;28;20038;-82
2023/03/11 07:47:04;;;;;;;3.20;1.50;;;;;;;;;;5077847;28;20040;-81
2023/03/11 07:49:31;;;;;;;2.40;1.40;;;;;;;;;;5078013;28;20029;-80
2023/03/11 07:51:56;;;;;;;2.90;1.40;;;;;;;;;;5077820;28;20032;-82
2023/03/11 07:54:22;;;;;;;2.45;1.10;;;;;;;;;;5077711;28;20036;-80
2023/03/11 07:56:47;;;;;;;2.58;1.30;;;;;;;;;;5078842;28;20055;-80
2023/03/11 07:59:13;;;;;;;6.03;1.10;;;;;;;;;;5065714;28;20488;-81
2023/03/11 08:01:40;;;;;;;2.30;1.20;;;;;;;;;;5082474;28;20059;-81
2023/03/11 08:04:10;;;;;;;2.70;1.33;;;;;;;;;;5063848;28;20036;-82
2023/03/11 08:06:37;;;;;;;2.60;1.50;;;;;;;;;;5082776;28;20043;-81
2023/03/11 08:09:05;;;;;;;2.17;1.40;;;;;;;;;;5082947;28;20044;-82
2023/03/11 08:11:31;;;;;;;2.45;1.50;;;;;;;;;;5081775;28;20048;-81
2023/03/11 08:13:57;;;;;;;2.45;1.20;;;;;;;;;;5081393;28;20041;-82
2023/03/11 08:16:23;;;;;;;2.28;1.25;;;;;;;;;;5081149;28;20040;-82
2023/03/11 08:18:50;;;;;;;1.75;1.20;;;;;;;;;;5082351;28;20060;-80
2023/03/11 08:21:19;;;;;;;2.33;1.30;;;;;;;;;;5080958;28;20033;-81
2023/03/11 08:23:47;;;;;;;3.45;1.50;;;;;;;;;;5080299;28;20071;-82
2023/03/11 08:26:18;;;;;;;2.08;1.50;;;;;;;;;;5076319;28;20382;-81
2023/03/11 08:28:44;;;;;;;1.60;1.15;;;;;;;;;;5058459;28;20542;-81
2023/03/11 08:31:13;;;;;;;2.60;1.38;;;;;;;;;;5077499;28;20047;-80
2023/03/11 08:33:40;;;;;;;3.30;1.55;;;;;;;;;;5058982;28;20503;-81
2023/03/11 08:36:05;;;;;;;1.63;1.15;;;;;;;;;;5075345;28;20040;-81
2023/03/11 08:38:31;;;;;;;2.33;1.17;;;;;;;;;;5077044;28;20432;-81
2023/03/11 08:40:56;;;;;;;3.83;1.40;;;;;;;;;;5059189;28;20032;-83
2023/03/11 08:43:22;;;;;;;2.60;1.40;;;;;;;;;;5058682;28;20036;-82
2023/03/11 08:45:48;;;;;;;2.13;1.30;;;;;;;;;;5076434;28;20036;-82
2023/03/11 08:48:13;;;;;;;2.00;1.20;;;;;;;;;;5059924;28;20124;-81
2023/03/11 08:50:41;;;;;;;2.42;1.30;;;;;;;;;;5075600;28;20048;-80
2023/03/11 08:53:07;;;;;;;2.85;1.50;;;;;;;;;;5058187;28;20044;-81
2023/03/11 08:55:33;;;;;;;3.28;1.50;;;;;;;;;;5075438;28;20077;-81
2023/03/11 08:57:59;;;;;;;2.53;1.50;;;;;;;;;;5076746;28;20033;-81
2023/03/11 09:00:25;;;;;;;2.67;1.27;;;;;;;;;;5075730;28;20365;-82
2023/03/11 09:02:50;;;;;;;2.10;1.30;;;;;;;;;;5077567;28;20036;-81
2023/03/11 09:05:16;;;;;;;4.72;1.90;;;;;;;;;;5074537;28;20040;-81
2023/03/11 09:07:41;;;;;;;7.30;3.33;;;;;;;;;;5074811;28;20086;-81
2023/03/11 09:10:07;;;;;;;8.40;3.60;;;;;;;;;;5074686;28;20048;-80
2023/03/11 09:12:33;;;;;;;8.23;3.90;;;;;;;;;;5074245;28;20044;-81
2023/03/11 09:14:58;;;;;;;2.47;1.20;;;;;;;;;;5100761;22;20049;-87
2023/03/11 09:17:24;;;;;;;4.53;1.90;;;;;;;;;;5056465;28;20177;-88
2023/03/11 09:19:49;;;;;;;3.03;1.40;;;;;;;;;;5074960;28;20036;-88
2023/03/11 09:22:15;;;;;;;2.50;1.35;;;;;;;;;;5057733;28;20043;-87
2023/03/11 09:24:40;;;;;;;3.95;1.63;;;;;;;;;;5040823;28;20488;-87
2023/03/11 09:27:06;;;;;;;2.63;1.27;;;;;;;;;;5075890;28;20033;-89
2023/03/11 09:29:31;;;;;;;3.30;1.60;;;;;;;;;;5057893;28;20576;-88
2023/03/11 09:31:57;;;;;;;3.53;1.70;;;;;;;;;;5077067;28;20058;-85
2023/03/11 09:34:23;;;;;;;2.70;1.45;;;;;;;;;;5062569;28;20056;-85
2023/03/11 09:36:49;;;;;;;1.75;1.20;;;;;;;;;;5076335;28;20044;-85
2023/03/11 09:39:14;;;;;;;3.95;1.27;;;;;;;;;;5075613;28;20381;-87
2023/03/11 09:41:53;;;;;;;2.05;1.25;;;;;;;;;;5072730;28;20039;-86
2023/03/11 09:45:08;;;;;;;2.38;1.45;;;;;;;;;;5084552;28;20444;-87
2023/03/11 09:47:44;;;;;;;1.92;1.10;;;;;;;;;;5044791;28;20052;-83
2023/03/11 09:50:14;;;;;;;1.60;1.20;;;;;;;;;;5075625;28;20031;-87
2023/03/11 09:52:39;;;;;;;3.20;1.45;;;;;;;;;;5075023;28;20099;-87
2023/03/11 09:55:20;;;;;;;4.68;1.50;;;;;;;;;;5055611;28;20537;-86
2023/03/11 09:57:46;;;;;;;3.00;1.30;;;;;;;;;;5074483;28;20025;-86
2023/03/11 10:00:15;;;;;;;2.50;1.30;;;;;;;;;;5057143;28;20060;-87
2023/03/11 10:02:41;;;;;;;2.50;1.35;;;;;;;;;;5076424;28;20043;-86
2023/03/11 10:05:18;;;;;;;2.17;1.10;;;;;;;;;;5058027;28;20024;-86
2023/03/11 10:07:48;;;;;;;1.85;1.15;;;;;;;;;;5040870;28;20042;-86
2023/03/11 10:10:16;;;;;;;4.15;1.30;;;;;;;;;;5074221;28;20476;-86
2023/03/11 10:12:41;;;;;;;1.60;1.10;;;;;;;;;;5073526;28;20025;-83
2023/03/11 10:15:25;;;;;;;2.53;1.30;;;;;;;;;;5073908;28;20287;-87
2023/03/11 10:18:10;;;;;;;3.10;1.40;;;;;;;;;;5073316;28;20020;-86
2023/03/11 10:20:49;;;;;;;4.38;1.63;;;;;;;;;;5055718;28;20033;-87
2023/03/11 10:23:49;;;;;;;4.43;1.25;;;;;;;;;;5073843;28;20037;-87
2023/03/11 10:26:22;;;;;;;3.83;1.23;;;;;;;;;;5077487;28;20024;-87
2023/03/11 10:29:01;;;;;;;1.52;1.20;;;;;;;;;;5059511;28;20033;-87
2023/03/11 10:32:01;;;;;;;2.58;1.45;;;;;;;;;;5077696;28;20037;-86
2023/03/11 10:34:37;;;;;;;3.53;1.70;;;;;;;;;;5077352;28;20514;-88
2023/03/11 10:37:41;;;;;;;1.77;1.10;;;;;;;;;;5085667;28;20040;-84
2023/03/11 10:40:13;;;;;;;;;;;;;;;;;;5059254;28;20077;-85
2023/03/11 10:42:42;;;;;;;8.38;3.10;;;;;;;;;;5077284;28;19908;-88
2023/03/11 10:45:12;;;;;;;3.97;1.80;;;;;;;;;;5059820;28;20550;-88
2023/03/11 10:47:38;;;;;;;2.50;1.30;;;;;;;;;;5085245;28;20021;-86
2023/03/11 10:50:03;;;;;;;5.53;2.20;;;;;;;;;;5066192;28;20491;-87
2023/03/11 10:52:29;;;;;;;16.13;4.90;;;;;;;;;;5082012;28;20388;-85
2023/03/11 10:55:01;;;;;;;3.30;1.80;;;;;;;;;;5061819;28;20104;-89
2023/03/11 10:57:27;;;;;;;22.30;7.18;;;;;;;;;;5078527;28;20608;-84
2023/03/11 10:59:57;;;;;;;5.80;1.80;;;;;;;;;;5069925;28;20425;-87
2023/03/11 11:02:26;;;;;;;3.40;1.70;;;;;;;;;;5045313;28;20100;-88
2023/03/11 11:05:06;;;;;;;6.32;2.70;;;;;;;;;;5080018;28;20032;-87
2023/03/11 11:07:39;;;;;;;2.92;1.85;;;;;;;;;;5078899;28;20481;-88
2023/03/11 11:10:21;;;;;;;15.73;5.85;;;;;;;;;;5061796;28;20032;-87
2023/03/11 11:12:58;;;;;;;7.93;3.30;;;;;;;;;;5079199;28;20029;-86
2023/03/11 11:15:33;;;;;;;10.07;4.50;;;;;;;;;;5079711;28;20043;-85
2023/03/11 11:18:03;;;;;;;8.32;3.90;;;;;;;;;;5060070;28;20024;-87
2023/03/11 11:20:30;;;;;;;5.13;2.55;;;;;;;;;;5045669;28;20044;-86
2023/03/11 11:22:59;;;;;;;5.72;2.80;;;;;;;;;;5061274;28;20028;-87
2023/03/11 11:25:39;;;;;;;3.03;1.75;;;;;;;;;;5060649;28;20032;-87
2023/03/11 11:28:16;;;;;;;9.52;3.20;;;;;;;;;;5061161;28;20096;-87
2023/03/11 11:30:56;;;;;;;12.77;3.90;;;;;;;;;;5078726;28;20041;-86
2023/03/11 11:33:30;;;;;;;9.30;4.85;;;;;;;;;;5077529;28;20036;-85
2023/03/11 11:36:00;;;;;;;5.78;2.30;;;;;;;;;;5075902;28;20051;-87
2023/03/11 11:38:27;;;;;;;4.97;2.60;;;;;;;;;;5078131;28;20040;-88
2023/03/11 11:40:56;;;;;;;5.53;2.50;;;;;;;;;;5081375;28;20067;-83
2023/03/11 11:43:37;;;;;;;3.60;1.70;;;;;;;;;;5066500;28;20052;-85
2023/03/11 11:46:10;;;;;;;6.93;2.70;;;;;;;;;;5059387;28;20040;-86
2023/03/11 11:49:11;;;;;;;3.47;2.08;;;;;;;;;;5058962;28;20032;-84
2023/03/11 11:51:58;;;;;;;5.15;2.80;;;;;;;;;;5063078;28;20127;-85
2023/03/11 11:54:33;;;;;;;4.72;2.35;;;;;;;;;;5075199;28;20074;-83
2023/03/11 11:57:07;;;;;;;6.95;2.83;;;;;;;;;;5075657;28;20090;-86
2023/03/11 11:59:32;;;;;;;;;;;;;;;;;;5074791;28;20408;-83
2023/03/11 12:02:03;;;;;;;4.50;2.17;;;;;;;;;;5074145;28;19919;-84
2023/03/11 12:05:23;;;;;;;4.65;2.90;;;;;;;;;;5073903;28;20048;-84
2023/03/11 12:08:13;;;;;;;20.50;11.95;;;;;;;;;;4991834;28;20042;-84
2023/03/11 12:10:38;;;;;;;9.15;5.20;;;;;;;;;;5051928;28;20055;-84
2023/03/11 12:13:16;;;;;;;5.90;2.70;;;;;;;;;;5085336;28;20032;-83
2023/03/11 12:15:49;;;;;;;6.55;3.47;;;;;;;;;;5057859;28;20032;-84
2023/03/11 12:18:23;;;;;;;13.13;5.65;;;;;;;;;;5075202;28;20493;-84
2023/03/11 12:20:53;;;;;;;4.93;2.92;;;;;;;;;;5075675;28;20102;-85
2023/03/11 12:23:43;;;;;;;5.25;2.80;;;;;;;;;;5076255;28;20033;-84
2023/03/11 12:26:13;;;;;;;8.07;4.03;;;;;;;;;;5075913;28;20028;-86
2023/03/11 12:28:41;;;;;;;6.70;3.78;;;;;;;;;;5058262;28;20081;-86
2023/03/11 12:31:09;;;;;;;6.22;3.15;;;;;;;;;;5076052;28;20389;-85
2023/03/11 12:33:37;;;;;;;9.30;4.88;;;;;;;;;;5058231;28;20477;-84
2023/03/11 12:36:05;;;;;;;3.03;1.70;;;;;;;;;;5076321;28;20204;-85
2023/03/11 12:38:39;;;;;;;5.40;2.80;;;;;;;;;;5077157;28;20040;-86
2023/03/11 12:41:14;;;;;;;5.95;2.90;;;;;;;;;;5076830;28;20048;-84
2023/03/11 12:43:39;;;;;;;6.75;3.58;;;;;;;;;;5077123;28;20090;-85
2023/03/11 12:46:10;;;;;;;7.07;3.28;;;;;;;;;;5082958;28;20048;-84
2023/03/11 12:49:03;;;;;;;5.20;2.25;;;;;;;;;;5074001;28;20074;-84
2023/03/11 12:51:28;;;;;;;2.70;1.70;;;;;;;;;;5074047;28;20067;-85
2023/03/11 12:53:54;;;;;;;2.13;1.55;;;;;;;;;;5074945;28;20296;-85
2023/03/11 12:56:42;;;;;;;7.60;4.15;;;;;;;;;;5075107;28;20116;-85
2023/03/11 12:59:43;;;;;;;13.10;7.10;;;;;;;;;;5075089;28;20036;-84
2023/03/11 13:02:08;;;;;;;4.68;2.50;;;;;;;;;;5074624;28;20475;-86
2023/03/11 13:04:49;;;;;;;3.97;2.30;;;;;;;;;;5073825;28;20581;-84
2023/03/11 13:07:33;;;;;;;15.52;7.63;;;;;;;;;;5055849;28;20032;-86
2023/03/11 13:10:17;;;;;;;7.30;3.83;;;;;;;;;;5056176;28;20036;-85
2023/03/11 13:12:46;;;;;;;9.60;4.10;;;;;;;;;;5039060;28;20028;-85
2023/03/11 13:15:17;;;;;;;5.78;2.75;;;;;;;;;;5073355;28;20044;-84
2023/03/11 13:18:12;;;;;;;12.13;3.38;;;;;;;;;;5073415;28;20032;-84
2023/03/11 13:20:40;;;;;;;2.60;1.38;;;;;;;;;;5045799;28;20044;-85
2023/03/11 13:23:11;;;;;;;6.38;1.95;;;;;;;;;;5054550;28;20225;-85
2023/03/11 13:26:11;;;;;;;9.40;3.30;;;;;;;;;;5078672;28;20020;-83
2023/03/11 13:29:02;;;;;;;14.70;3.20;;;;;;;;;;5076135;28;20070;-85
2023/03/11 13:31:33;;;;;;;2.70;1.52;;;;;;;;;;5077555;28;20047;-86
2023/03/11 13:34:11;;;;;;;4.43;1.30;;;;;;;;;;5076210;28;20041;-84
2023/03/11 13:37:11;;;;;;;2.70;1.40;;;;;;;;;;5058417;28;20075;-83
2023/03/11 13:40:11;;;;;;;4.43;1.50;;;;;;;;;;5057818;28;20036;-84
2023/03/11 13:42:44;;;;;;;4.18;1.80;;;;;;;;;;5078396;28;20053;-85
2023/03/11 13:45:26;;;;;;;2.05;1.48;;;;;;;;;;5081246;28;20463;-85
2023/03/11 13:47:55;;;;;;;4.20;1.40;;;;;;;;;;5080491;28;20036;-87
2023/03/11 13:50:43;;;;;;;8.85;2.67;;;;;;;;;;5068981;28;20024;-88
2023/03/11 13:53:18;;;;;;;23.45;5.38;;;;;;;;;;5080588;28;20028;-87
2023/03/11 13:55:45;;;;;;;2.75;1.48;;;;;;;;;;5061725;28;20058;-86
2023/03/11 13:58:29;;;;;;;1.98;1.30;;;;;;;;;;5078813;28;20028;-88
2023/03/11 14:00:54;;;;;;;3.25;1.58;;;;;;;;;;5082706;28;20078;-84
2023/03/11 14:03:24;;;;;;;5.15;2.05;;;;;;;;;;5047780;28;20040;-85
2023/03/11 14:05:56;;;;;;;2.55;1.45;;;;;;;;;;5060472;28;20166;-87
2023/03/11 14:08:26;;;;;;;2.05;1.38;;;;;;;;;;5078661;28;20044;-86
2023/03/11 14:10:54;;;;;;;2.03;1.58;;;;;;;;;;5079003;28;20044;-88
2023/03/11 14:13:20;;;;;;;2.67;1.50;;;;;;;;;;5078713;28;20033;-88
2023/03/11 14:15:58;;;;;;;2.65;1.20;;;;;;;;;;5078343;28;20021;-89
2023/03/11 14:18:30;;;;;;;1.80;1.20;;;;;;;;;;5078001;28;20033;-86
2023/03/11 14:20:57;;;;;;;4.20;1.38;;;;;;;;;;5078220;28;20170;-87
2023/03/11 14:23:27;;;;;;;2.47;1.45;;;;;;;;;;5058932;28;20020;-86
2023/03/11 14:26:01;;;;;;;3.10;1.60;;;;;;;;;;5081994;28;20043;-85
2023/03/11 14:28:29;;;;;;;;;;;;;;;;;;5084008;28;20036;-85
2023/03/11 14:30:56;;;;;;;2.70;1.25;;;;;;;;;;5080533;28;19912;-86
2023/03/11 14:33:22;;;;;;;1.85;1.23;;;;;;;;;;5079678;28;20085;-87
2023/03/11 14:35:57;;;;;;;2.92;1.42;;;;;;;;;;5078540;28;20040;-86
2023/03/11 14:38:25;;;;;;;3.47;1.40;;;;;;;;;;5077596;28;20067;-85
2023/03/11 14:40:57;;;;;;;2.92;1.40;;;;;;;;;;5086691;28;20226;-85
2023/03/11 14:43:23;;;;;;;2.25;1.40;;;;;;;;;;5060182;28;20043;-85
2023/03/11 14:45:51;;;;;;;2.08;1.30;;;;;;;;;;5078400;28;20028;-85
2023/03/11 14:48:19;;;;;;;2.58;1.30;;;;;;;;;;5078495;28;20424;-85
2023/03/11 14:50:48;;;;;;;1.85;1.40;;;;;;;;;;5045236;28;20086;-85
2023/03/11 14:53:44;;;;;;;3.22;1.38;;;;;;;;;;5085130;28;20071;-85
2023/03/11 14:56:17;;;;;;;3.63;1.42;;;;;;;;;;5080862;28;20049;-86
2023/03/11 14:58:47;;;;;;;2.45;1.20;;;;;;;;;;5079416;28;20084;-86